createdAt,value
2023-04-28T00:01:13.388Z,99.90
2023-04-28T00:03:41.121Z,99.90
2023-04-28T00:06:08.481Z,99.90
2023-04-28T00:08:35.738Z,99.90
2023-04-28T00:11:02.963Z,99.90
2023-04-28T00:13:30.327Z,99.90
2023-04-28T00:16:00.276Z,99.90
2023-04-28T00:18:27.088Z,99.90
2023-04-28T00:20:55.404Z,99.90
2023-04-28T00:23:22.944Z,99.90
2023-04-28T00:25:53.177Z,99.90
2023-04-28T00:28:32.808Z,99.90
2023-04-28T00:31:00.994Z,99.90
2023-04-28T00:33:27.778Z,99.90
2023-04-28T00:38:46.297Z,99.90
2023-04-28T00:41:13.115Z,99.90
2023-04-28T00:43:47.265Z,99.90
2023-04-28T00:46:23.296Z,99.90
2023-04-28T00:48:50.806Z,99.90
2023-04-28T00:51:17.734Z,99.90
2023-04-28T00:53:44.781Z,99.90
2023-04-28T00:56:13.115Z,99.90
2023-04-28T00:58:40.416Z,99.90
2023-04-28T01:01:08.387Z,99.90
2023-04-28T01:03:38.015Z,99.90
2023-04-28T01:06:06.616Z,99.90
2023-04-28T01:08:35.018Z,99.90
2023-04-28T01:11:02.164Z,99.90
2023-04-28T01:13:29.336Z,99.90
2023-04-28T01:15:57.042Z,99.90
2023-04-28T01:18:24.326Z,99.90
2023-04-28T01:20:51.072Z,99.90
2023-04-28T01:23:17.953Z,99.90
2023-04-28T01:25:44.945Z,99.90
2023-04-28T01:28:11.756Z,99.90
2023-04-28T01:30:39.389Z,99.90
2023-04-28T01:33:06.625Z,99.90
2023-04-28T01:35:35.033Z,99.90
2023-04-28T01:38:02.382Z,99.90
2023-04-28T01:40:29.113Z,99.90
2023-04-28T01:42:56.126Z,99.90
2023-04-28T01:45:22.980Z,99.90
2023-04-28T01:47:49.782Z,99.90
2023-04-28T01:50:16.992Z,99.90
2023-04-28T01:52:43.758Z,99.90
2023-04-28T01:55:10.885Z,99.90
2023-04-28T01:57:37.726Z,99.90
2023-04-28T02:00:05.162Z,99.90
2023-04-28T02:02:34.471Z,99.90
2023-04-28T02:05:01.654Z,99.90
2023-04-28T02:07:28.487Z,99.90
2023-04-28T02:09:55.313Z,99.90
2023-04-28T02:12:22.350Z,99.90
2023-04-28T02:14:49.505Z,99.90
2023-04-28T02:17:16.748Z,99.90
2023-04-28T02:19:43.638Z,99.90
2023-04-28T02:22:10.871Z,99.90
2023-04-28T02:24:38.951Z,99.90
2023-04-28T02:27:05.692Z,99.90
2023-04-28T02:29:32.920Z,99.90
2023-04-28T02:31:59.886Z,99.90
2023-04-28T02:34:26.901Z,99.90
2023-04-28T02:36:55.561Z,99.90
2023-04-28T02:39:25.436Z,99.90
2023-04-28T02:41:53.028Z,99.90
2023-04-28T02:47:04.986Z,99.90
2023-04-28T02:49:31.772Z,99.90
2023-04-28T02:51:58.565Z,99.90
2023-04-28T02:54:28.608Z,99.90
2023-04-28T02:56:56.168Z,99.90
2023-04-28T02:59:23.814Z,99.90
2023-04-28T03:01:51.797Z,99.90
2023-04-28T03:04:18.981Z,99.90
2023-04-28T03:06:46.392Z,99.90
2023-04-28T03:09:14.185Z,99.90
2023-04-28T03:11:41.315Z,99.90
2023-04-28T03:14:08.057Z,99.90
2023-04-28T03:16:35.235Z,99.90
2023-04-28T03:19:01.981Z,99.90
2023-04-28T03:21:29.066Z,99.90
2023-04-28T03:23:56.188Z,99.90
2023-04-28T03:26:22.916Z,99.90
2023-04-28T03:28:49.935Z,99.90
2023-04-28T03:31:17.930Z,99.90
2023-04-28T03:33:47.500Z,99.90
2023-04-28T03:36:14.585Z,99.90
2023-04-28T03:38:42.022Z,99.90
2023-04-28T03:41:09.168Z,99.90
2023-04-28T03:43:37.360Z,99.90
2023-04-28T03:46:05.277Z,99.90
2023-04-28T03:48:32.189Z,99.90
2023-04-28T03:50:58.978Z,99.90
2023-04-28T03:53:27.262Z,99.90
2023-04-28T03:55:54.066Z,99.90
2023-04-28T03:58:21.281Z,99.90
2023-04-28T04:00:48.092Z,99.90
2023-04-28T04:03:15.091Z,99.90
2023-04-28T04:05:42.606Z,99.90
2023-04-28T04:08:09.359Z,99.90
2023-04-28T04:10:36.419Z,99.90
2023-04-28T04:13:03.201Z,99.90
2023-04-28T04:15:29.966Z,99.90
2023-04-28T04:17:57.195Z,99.90
2023-04-28T04:20:24.020Z,99.90
2023-04-28T04:25:35.331Z,99.90
2023-04-28T04:28:02.101Z,99.90
2023-04-28T04:30:28.890Z,99.90
2023-04-28T04:32:55.983Z,99.90
2023-04-28T04:35:22.898Z,99.90
2023-04-28T04:37:50.268Z,99.90
2023-04-28T04:40:17.313Z,99.90
2023-04-28T04:42:44.064Z,99.90
2023-04-28T04:45:10.968Z,99.90
2023-04-28T04:47:38.332Z,99.90
2023-04-28T04:50:06.037Z,99.90
2023-04-28T04:52:33.684Z,99.90
2023-04-28T04:55:01.542Z,99.90
2023-04-28T04:57:28.655Z,99.90
2023-04-28T04:59:55.502Z,99.90
2023-04-28T05:02:22.648Z,99.90
2023-04-28T05:04:49.849Z,99.90
2023-04-28T05:07:20.034Z,99.90
2023-04-28T05:09:47.093Z,99.90
2023-04-28T05:12:13.843Z,99.90
2023-04-28T05:14:40.940Z,99.90
2023-04-28T05:17:10.470Z,99.90
2023-04-28T05:19:37.221Z,99.90
2023-04-28T05:22:04.557Z,99.90
2023-04-28T05:24:31.404Z,99.90
2023-04-28T05:26:59.553Z,99.90
2023-04-28T05:29:26.505Z,99.90
2023-04-28T05:31:53.603Z,99.90
2023-04-28T05:34:20.655Z,99.90
2023-04-28T05:36:47.716Z,99.90
2023-04-28T05:39:14.595Z,99.90
2023-04-28T05:41:41.772Z,99.90
2023-04-28T05:44:08.573Z,99.90
2023-04-28T05:46:36.878Z,99.90
2023-04-28T05:49:04.709Z,99.90
2023-04-28T05:51:31.542Z,99.90
2023-04-28T05:54:00.126Z,99.90
2023-04-28T05:56:26.958Z,99.90
2023-04-28T05:58:54.200Z,99.90
2023-04-28T06:01:22.693Z,99.90
2023-04-28T06:06:34.498Z,99.90
2023-04-28T06:09:02.201Z,99.90
2023-04-28T06:11:29.524Z,99.90
2023-04-28T06:13:56.307Z,99.90
2023-04-28T06:16:23.712Z,99.90
2023-04-28T06:18:51.172Z,99.90
2023-04-28T06:21:17.998Z,99.90
2023-04-28T06:23:45.088Z,99.90
2023-04-28T06:26:11.790Z,99.90
2023-04-28T06:28:38.862Z,99.90
2023-04-28T06:31:05.958Z,99.90
2023-04-28T06:33:33.038Z,99.90
2023-04-28T06:36:00.381Z,99.90
2023-04-28T06:38:27.400Z,99.90
2023-04-28T06:40:54.181Z,99.90
2023-04-28T06:43:23.686Z,99.90
2023-04-28T06:45:50.543Z,99.90
2023-04-28T06:48:20.302Z,99.90
2023-04-28T06:50:47.134Z,99.90
2023-04-28T06:53:14.188Z,99.90
2023-04-28T06:55:41.533Z,99.90
2023-04-28T06:58:08.478Z,99.90
2023-04-28T07:00:35.611Z,99.90
2023-04-28T07:03:02.926Z,99.90
2023-04-28T07:05:30.115Z,99.90
2023-04-28T07:07:57.198Z,99.90
2023-04-28T07:10:24.056Z,99.90
2023-04-28T07:12:52.614Z,99.90
2023-04-28T07:15:19.422Z,99.90
2023-04-28T07:17:46.350Z,99.90
2023-04-28T07:20:16.037Z,99.90
2023-04-28T07:22:42.977Z,99.90
2023-04-28T07:25:10.078Z,99.90
2023-04-28T07:27:36.954Z,99.90
2023-04-28T07:30:14.781Z,99.90
2023-04-28T07:32:51.205Z,99.90
2023-04-28T07:35:18.174Z,99.90
2023-04-28T07:37:44.924Z,99.90
2023-04-28T07:40:11.955Z,99.90
2023-04-28T07:42:39.267Z,99.90
2023-04-28T07:45:09.411Z,99.90
2023-04-28T07:47:36.878Z,99.90
2023-04-28T07:50:06.380Z,99.90
2023-04-28T07:52:33.690Z,99.90
2023-04-28T07:55:00.673Z,99.90
2023-04-28T07:57:29.235Z,99.90
2023-04-28T07:59:56.397Z,99.90
2023-04-28T08:02:23.431Z,99.90
2023-04-28T08:04:50.756Z,99.90
2023-04-28T08:07:17.749Z,99.90
2023-04-28T08:09:47.488Z,99.90
2023-04-28T08:12:15.231Z,99.90
2023-04-28T08:14:42.099Z,99.90
2023-04-28T08:17:09.409Z,99.90
2023-04-28T08:19:36.266Z,99.90
2023-04-28T08:22:06.078Z,99.90
2023-04-28T08:24:36.672Z,99.90
2023-04-28T08:27:05.042Z,99.90
2023-04-28T08:29:32.685Z,99.90
2023-04-28T08:32:00.157Z,99.90
2023-04-28T08:34:27.240Z,99.90
2023-04-28T08:36:54.284Z,99.90
2023-04-28T08:39:23.133Z,99.90
2023-04-28T08:41:50.546Z,99.60
2023-04-28T08:44:18.022Z,99.10
2023-04-28T08:46:47.057Z,99.40
2023-04-28T08:49:18.435Z,97.90
2023-04-28T08:51:50.016Z,98.70
2023-04-28T08:54:26.047Z,99.10
2023-04-28T08:56:54.362Z,98.30
2023-04-28T08:59:21.393Z,98.30
2023-04-28T09:01:49.518Z,97.90
2023-04-28T09:04:18.531Z,98.10
2023-04-28T09:06:48.739Z,98.10
2023-04-28T09:09:20.306Z,98.40
2023-04-28T09:11:59.355Z,98.00
2023-04-28T09:14:27.519Z,98.00
2023-04-28T09:16:54.714Z,99.00
2023-04-28T09:19:21.795Z,99.10
2023-04-28T09:21:56.993Z,99.40
2023-04-28T09:24:40.767Z,99.60
2023-04-28T09:27:10.958Z,99.40
2023-04-28T09:29:38.464Z,99.30
2023-04-28T09:32:16.442Z,99.00
2023-04-28T09:34:48.652Z,98.60
2023-04-28T09:37:20.789Z,98.70
2023-04-28T09:39:50.548Z,98.40
2023-04-28T09:42:37.390Z,98.30
2023-04-28T09:45:07.535Z,98.30
2023-04-28T09:50:20.724Z,98.90
2023-04-28T09:52:57.618Z,98.80
2023-04-28T09:55:25.204Z,98.20
2023-04-28T09:57:53.214Z,98.30
2023-04-28T10:00:20.392Z,98.40
2023-04-28T10:02:47.303Z,98.20
2023-04-28T10:05:17.126Z,98.50
2023-04-28T10:07:44.089Z,98.40
2023-04-28T10:10:11.304Z,98.20
2023-04-28T10:12:39.181Z,98.00
2023-04-28T10:15:07.845Z,98.20
2023-04-28T10:17:34.669Z,98.30
2023-04-28T10:20:01.521Z,98.40
2023-04-28T10:22:57.293Z,98.00
2023-04-28T10:25:32.061Z,97.50
2023-04-28T10:28:00.319Z,97.10
2023-04-28T10:30:31.251Z,96.70
2023-04-28T10:33:30.738Z,96.90
2023-04-28T10:35:58.132Z,96.70
2023-04-28T10:38:25.417Z,97.00
2023-04-28T10:40:53.858Z,96.40
2023-04-28T10:43:31.168Z,96.80
2023-04-28T10:46:00.919Z,96.80
2023-04-28T10:48:33.898Z,96.60
2023-04-28T10:51:07.592Z,95.70
2023-04-28T10:53:47.141Z,95.80
2023-04-28T10:56:21.823Z,95.80
2023-04-28T10:58:50.927Z,95.80
2023-04-28T11:01:35.299Z,95.80
2023-04-28T11:04:16.688Z,95.80
2023-04-28T11:06:48.225Z,95.90
2023-04-28T11:09:15.985Z,95.50
2023-04-28T11:11:57.782Z,95.00
2023-04-28T11:14:35.504Z,94.80
2023-04-28T11:17:03.479Z,95.10
2023-04-28T11:19:33.461Z,95.20
2023-04-28T11:22:02.062Z,95.30
2023-04-28T11:24:29.773Z,95.10
2023-04-28T11:26:58.487Z,94.90
2023-04-28T11:29:41.533Z,94.30
2023-04-28T11:32:09.680Z,94.60
2023-04-28T11:34:36.965Z,94.40
2023-04-28T11:37:03.958Z,94.30
2023-04-28T11:39:32.333Z,94.10
2023-04-28T11:42:00.865Z,94.00
2023-04-28T11:44:29.270Z,93.90
2023-04-28T11:46:57.394Z,93.80
2023-04-28T11:49:24.900Z,93.70
2023-04-28T11:51:52.142Z,94.00
2023-04-28T11:54:23.933Z,94.30
2023-04-28T11:56:51.146Z,94.20
2023-04-28T11:59:20.819Z,94.20
2023-04-28T12:01:47.495Z,94.10
2023-04-28T12:04:14.859Z,94.20
2023-04-28T12:06:42.641Z,94.00
2023-04-28T12:09:19.399Z,94.20
2023-04-28T12:11:57.125Z,94.30
2023-04-28T12:14:25.448Z,94.50
2023-04-28T12:16:52.233Z,94.40
2023-04-28T12:19:20.533Z,94.50
2023-04-28T12:22:03.317Z,94.60
2023-04-28T12:24:30.441Z,94.70
2023-04-28T12:27:27.004Z,94.90
2023-04-28T12:29:54.335Z,95.10
2023-04-28T12:32:39.935Z,95.30
2023-04-28T12:35:07.678Z,95.20
2023-04-28T12:37:34.666Z,95.20
2023-04-28T12:40:04.400Z,95.10
2023-04-28T12:42:31.359Z,95.00
2023-04-28T12:44:58.597Z,95.20
2023-04-28T12:47:25.737Z,95.30
2023-04-28T12:49:53.299Z,95.30
2023-04-28T12:52:20.791Z,95.40
2023-04-28T12:54:48.288Z,95.50
2023-04-28T12:57:19.028Z,95.50
2023-04-28T12:59:50.452Z,95.80
2023-04-28T13:02:17.246Z,95.90
2023-04-28T13:04:46.069Z,95.90
2023-04-28T13:07:13.472Z,96.00
2023-04-28T13:09:41.344Z,95.90
2023-04-28T13:12:08.899Z,96.00
2023-04-28T13:14:35.760Z,96.00
2023-04-28T13:17:03.384Z,96.30
2023-04-28T13:19:31.364Z,96.60
2023-04-28T13:21:58.514Z,96.70
2023-04-28T13:24:25.460Z,96.80
2023-04-28T13:26:52.769Z,97.00
2023-04-28T13:29:19.642Z,97.10
2023-04-28T13:31:46.560Z,97.20
2023-04-28T13:34:17.599Z,97.40
2023-04-28T13:36:44.914Z,97.60
2023-04-28T13:39:13.598Z,97.80
2023-04-28T13:41:40.813Z,98.00
2023-04-28T13:44:07.523Z,98.10
2023-04-28T13:46:35.631Z,98.00
2023-04-28T13:49:02.732Z,98.20
2023-04-28T13:51:29.543Z,98.40
2023-04-28T13:53:56.988Z,98.60
2023-04-28T13:56:24.571Z,99.20
2023-04-28T13:58:51.346Z,99.60
2023-04-28T14:01:18.256Z,99.90
2023-04-28T14:03:45.422Z,99.90
2023-04-28T14:06:12.850Z,99.90
2023-04-28T14:08:39.945Z,99.90
2023-04-28T14:11:06.821Z,99.90
2023-04-28T14:13:34.015Z,99.90
2023-04-28T14:16:04.625Z,99.90
2023-04-28T14:18:33.703Z,99.90
2023-04-28T14:21:08.408Z,99.90
2023-04-28T14:23:35.583Z,99.90
2023-04-28T14:26:02.505Z,99.90
2023-04-28T14:28:29.689Z,99.90
2023-04-28T14:30:56.777Z,99.90
2023-04-28T14:33:24.548Z,99.90
2023-04-28T14:38:38.278Z,99.90
2023-04-28T14:41:06.357Z,99.90
2023-04-28T14:43:33.118Z,99.90
2023-04-28T14:45:59.945Z,99.90
2023-04-28T14:48:27.012Z,99.90
2023-04-28T14:50:53.752Z,99.90
2023-04-28T14:53:20.749Z,99.90
2023-04-28T14:55:47.785Z,99.90
2023-04-28T14:58:15.266Z,99.90
2023-04-28T15:00:42.140Z,99.90
2023-04-28T15:03:09.024Z,99.90
2023-04-28T15:05:35.825Z,99.90
2023-04-28T15:08:02.606Z,99.90
2023-04-28T15:10:35.791Z,99.90
2023-04-28T15:13:02.822Z,99.90
2023-04-28T15:15:30.056Z,99.90
2023-04-28T15:18:00.915Z,99.90
2023-04-28T15:20:30.296Z,99.90
2023-04-28T15:22:57.555Z,99.90
2023-04-28T15:25:24.572Z,99.90
2023-04-28T15:27:51.657Z,99.90
2023-04-28T15:30:18.986Z,99.90
2023-04-28T15:32:46.577Z,99.90
2023-04-28T15:35:13.350Z,99.90
2023-04-28T15:37:43.011Z,99.90
2023-04-28T15:40:11.924Z,99.90
2023-04-28T15:42:39.501Z,99.90
2023-04-28T15:45:09.498Z,99.90
2023-04-28T15:47:37.520Z,99.90
2023-04-28T15:50:05.009Z,99.90
2023-04-28T15:52:31.963Z,99.90
2023-04-28T15:55:00.693Z,99.90
2023-04-28T15:57:29.641Z,99.90
2023-04-28T15:59:56.632Z,99.90
2023-04-28T16:02:23.788Z,99.90
2023-04-28T16:04:51.109Z,99.90
2023-04-28T16:07:18.550Z,99.90
2023-04-28T16:09:45.322Z,99.90
2023-04-28T16:12:12.748Z,99.90
2023-04-28T16:14:39.452Z,99.90
2023-04-28T16:17:06.214Z,99.90
2023-04-28T16:19:33.649Z,99.90
2023-04-28T16:22:01.442Z,99.90
2023-04-28T16:24:31.017Z,99.90
2023-04-28T16:26:57.796Z,99.90
2023-04-28T16:29:24.646Z,99.90
2023-04-28T16:31:51.606Z,99.90
2023-04-28T16:34:19.695Z,99.90
2023-04-28T16:36:46.558Z,99.90
2023-04-28T16:39:13.347Z,99.90
2023-04-28T16:41:40.111Z,99.90
2023-04-28T16:44:08.276Z,99.90
2023-04-28T16:46:35.082Z,99.90
2023-04-28T16:49:03.522Z,99.90
2023-04-28T16:51:35.304Z,99.90
2023-04-28T16:54:02.275Z,99.90
2023-04-28T16:56:29.577Z,99.90
2023-04-28T16:58:56.325Z,99.90
2023-04-28T17:01:23.356Z,99.90
2023-04-28T17:03:50.945Z,99.90
2023-04-28T17:06:17.847Z,99.90
2023-04-28T17:08:44.765Z,99.90
2023-04-28T17:11:16.180Z,99.90
2023-04-28T17:13:43.160Z,99.90
2023-04-28T17:16:12.086Z,99.90
2023-04-28T17:18:38.927Z,99.90
2023-04-28T17:21:06.111Z,99.90
2023-04-28T17:23:32.853Z,99.90
2023-04-28T17:25:59.681Z,99.90
2023-04-28T17:28:28.014Z,99.90
2023-04-28T17:30:55.718Z,99.90
2023-04-28T17:33:22.729Z,99.90
2023-04-28T17:35:49.940Z,99.90
2023-04-28T17:38:16.887Z,99.90
2023-04-28T17:40:48.443Z,99.90
2023-04-28T17:43:20.266Z,99.90
2023-04-28T17:45:47.368Z,99.90
2023-04-28T17:48:14.857Z,99.90
2023-04-28T17:50:42.134Z,99.90
2023-04-28T17:53:14.088Z,99.90
2023-04-28T17:55:41.552Z,99.90
2023-04-28T17:58:08.632Z,99.90
2023-04-28T18:00:35.398Z,99.90
2023-04-28T18:03:03.694Z,99.90
2023-04-28T18:05:31.399Z,99.90
2023-04-28T18:08:03.711Z,99.90
2023-04-28T18:10:31.777Z,99.90
2023-04-28T18:12:59.264Z,99.90
2023-04-28T18:15:26.453Z,99.90
2023-04-28T18:17:53.634Z,99.90
2023-04-28T18:20:20.467Z,99.90
2023-04-28T18:22:47.352Z,99.90
2023-04-28T18:25:16.730Z,99.90
2023-04-28T18:27:43.768Z,99.90
2023-04-28T18:30:11.163Z,99.90
2023-04-28T18:32:37.972Z,99.90
2023-04-28T18:35:04.895Z,99.90
2023-04-28T18:37:31.699Z,99.90
2023-04-28T18:39:58.841Z,99.90
2023-04-28T18:42:27.330Z,99.90
2023-04-28T18:44:56.422Z,99.90
2023-04-28T18:47:23.346Z,99.90
2023-04-28T18:49:51.011Z,99.90
2023-04-28T18:52:18.206Z,99.90
2023-04-28T18:54:46.944Z,99.90
2023-04-28T18:57:14.017Z,99.90
2023-04-28T18:59:40.860Z,99.90
2023-04-28T19:02:08.877Z,99.90
2023-04-28T19:04:37.204Z,99.90
2023-04-28T19:07:04.279Z,99.90
2023-04-28T19:09:31.511Z,99.90
2023-04-28T19:11:58.340Z,99.90
2023-04-28T19:14:25.103Z,99.90
2023-04-28T19:16:52.228Z,99.90
2023-04-28T19:19:19.491Z,99.90
2023-04-28T19:21:46.754Z,99.90
2023-04-28T19:24:13.781Z,99.90
2023-04-28T19:26:41.880Z,99.90
2023-04-28T19:29:08.675Z,99.90
2023-04-28T19:31:35.416Z,99.90
2023-04-28T19:34:02.459Z,99.90
2023-04-28T19:36:30.958Z,99.90
2023-04-28T19:38:58.479Z,99.90
2023-04-28T19:41:25.161Z,99.90
2023-04-28T19:43:51.969Z,99.90
2023-04-28T19:46:19.567Z,99.90
2023-04-28T19:48:49.005Z,99.90
2023-04-28T19:51:16.969Z,99.90
2023-04-28T19:53:46.578Z,99.90
2023-04-28T19:56:14.799Z,99.90
2023-04-28T19:58:41.526Z,99.90
2023-04-28T20:01:08.639Z,99.90
2023-04-28T20:03:36.091Z,99.90
2023-04-28T20:06:04.054Z,99.90
2023-04-28T20:08:31.104Z,99.90
2023-04-28T20:10:58.206Z,99.90
2023-04-28T20:13:26.084Z,99.90
2023-04-28T20:15:54.818Z,99.90
2023-04-28T20:18:21.630Z,99.90
2023-04-28T20:20:48.720Z,99.90
2023-04-28T20:23:16.025Z,99.90
2023-04-28T20:25:42.800Z,99.90
2023-04-28T20:28:09.563Z,99.90
2023-04-28T20:30:39.257Z,99.90
2023-04-28T20:33:06.357Z,99.90
2023-04-28T20:35:33.229Z,99.90
2023-04-28T20:38:02.367Z,99.90
2023-04-28T20:40:29.909Z,99.90
2023-04-28T20:43:01.919Z,99.90
2023-04-28T20:45:29.853Z,99.90
2023-04-28T20:47:59.332Z,99.90
2023-04-28T20:50:28.317Z,99.90
2023-04-28T20:52:55.079Z,99.90
2023-04-28T20:55:22.842Z,99.90
2023-04-28T20:57:49.907Z,99.90
2023-04-28T21:00:16.666Z,99.90
2023-04-28T21:02:44.268Z,99.90
2023-04-28T21:05:11.782Z,99.90
2023-04-28T21:07:38.781Z,99.90
2023-04-28T21:10:06.161Z,99.90
2023-04-28T21:12:32.947Z,99.90
2023-04-28T21:15:00.816Z,99.90
2023-04-28T21:17:28.461Z,99.90
2023-04-28T21:19:55.800Z,99.90
2023-04-28T21:22:22.767Z,99.90
2023-04-28T21:24:49.452Z,99.90
2023-04-28T21:27:16.447Z,99.90
2023-04-28T21:29:43.550Z,99.90
2023-04-28T21:32:10.441Z,99.90
2023-04-28T21:34:37.201Z,99.90
2023-04-28T21:37:04.387Z,99.90
2023-04-28T21:39:31.195Z,99.90
2023-04-28T21:41:57.920Z,99.90
2023-04-28T21:44:24.868Z,99.90
2023-04-28T21:46:51.862Z,99.90
2023-04-28T21:49:19.166Z,99.90
2023-04-28T21:51:45.930Z,99.90
2023-04-28T21:54:13.000Z,99.90
2023-04-28T21:56:40.000Z,99.90
2023-04-28T21:59:06.967Z,99.90
2023-04-28T22:01:33.927Z,99.90
2023-04-28T22:04:03.750Z,99.90
2023-04-28T22:06:31.228Z,99.90
2023-04-28T22:08:58.035Z,99.90
2023-04-28T22:11:25.440Z,99.90
2023-04-28T22:13:52.296Z,99.90
2023-04-28T22:16:19.259Z,99.90
2023-04-28T22:18:46.466Z,99.90
2023-04-28T22:21:13.909Z,99.90
2023-04-28T22:23:41.499Z,99.90
2023-04-28T22:26:08.182Z,99.90
2023-04-28T22:28:35.272Z,99.90
2023-04-28T22:31:02.411Z,99.90
2023-04-28T22:33:29.509Z,99.90
2023-04-28T22:35:56.250Z,99.90
2023-04-28T22:38:22.949Z,99.90
2023-04-28T22:40:49.941Z,99.90
2023-04-28T22:43:16.754Z,99.90
2023-04-28T22:45:45.690Z,99.90
2023-04-28T22:48:14.015Z,99.90
2023-04-28T22:50:41.046Z,99.90
2023-04-28T22:53:08.395Z,99.90
2023-04-28T22:55:36.020Z,99.90
2023-04-28T22:58:03.009Z,99.90
2023-04-28T23:00:29.917Z,99.90
2023-04-28T23:02:57.200Z,99.90
2023-04-28T23:05:23.997Z,99.90
2023-04-28T23:07:51.018Z,99.90
2023-04-28T23:10:18.875Z,99.90
2023-04-28T23:12:45.592Z,99.90
2023-04-28T23:15:12.901Z,99.90
2023-04-28T23:17:39.667Z,99.90
2023-04-28T23:20:07.365Z,99.90
2023-04-28T23:22:34.085Z,99.90
2023-04-28T23:25:01.162Z,99.90
2023-04-28T23:27:27.964Z,99.90
2023-04-28T23:29:55.089Z,99.90
2023-04-28T23:32:22.237Z,99.90
2023-04-28T23:34:49.126Z,99.90
2023-04-28T23:37:16.179Z,99.90
2023-04-28T23:39:42.939Z,99.90
2023-04-28T23:42:10.056Z,99.90
2023-04-28T23:44:36.858Z,99.90
2023-04-28T23:47:03.569Z,99.90
2023-04-28T23:49:30.622Z,99.90
2023-04-28T23:51:57.305Z,99.90
2023-04-28T23:54:24.398Z,99.90
2023-04-28T23:56:51.091Z,99.90
2023-04-28T23:59:17.873Z,99.90
